Flight Track Log - Related Links

Times and Time Zones

All times are in EST time to prevent confusion due to time zone crossing. See the AFL150 flight status page for this flight to view local times or setup timezone preferences in your user account.

Time Position Orientation Groundspeed Altitude Reporting Facility
EST Latitude Longitude Course Direction KTS MPH feet Rate Location/Type
Tue 06:38:00 AM 56.1007 36.8503 307° West  Level Estimated
Tue 06:39:00 AM 56.1818 36.6521 306° West  Level Estimated
Tue 06:40:00 AM 56.2625 36.4530 306° West  Level Estimated
Tue 06:41:00 AM 56.3430 36.2531 306° West  Level Estimated
Tue 06:42:00 AM 56.4231 36.0523 306° West  Level Estimated
Tue 06:43:00 AM 56.5029 35.8507 306° West  Level Estimated
Tue 06:44:00 AM 56.5824 35.6482 306° West  Level Estimated
Tue 06:45:00 AM 56.6615 35.4449 305° West  Level Estimated
Tue 06:46:00 AM 56.7403 35.2407 305° West  Level Estimated
Tue 06:47:00 AM 56.8187 35.0357 305° West  Level Estimated
Tue 06:48:00 AM 56.8969 34.8298 305° West  Level Estimated
Tue 06:49:00 AM 56.9747 34.6230 305° West  Level Estimated
Tue 06:50:00 AM 57.0521 34.4154 305° West  Level Estimated
Tue 06:51:00 AM 57.1292 34.2069 304° West  Level Estimated
Tue 06:52:00 AM 57.2060 33.9976 304° West  Level Estimated
Tue 06:53:00 AM 57.2823 33.7874 304° West  Level Estimated
Tue 06:54:00 AM 57.3449 33.6140 304° West  Level Estimated
Tue 06:55:00 AM 57.4071 33.4400 304° West  Level Estimated
Tue 06:56:00 AM 57.4692 33.2654 304° West  Level Estimated
Tue 06:57:00 AM 57.5309 33.0903 303° West  Level Estimated
Tue 06:58:00 AM 57.5925 32.9146 303° West  Level Estimated
Tue 06:59:00 AM 57.6538 32.7382 303° West  Level Estimated
Tue 07:00:00 AM 57.7149 32.5613 303° West  Level Estimated
Tue 07:01:00 AM 57.7757 32.3838 303° West  Level Estimated
Tue 07:02:00 AM 57.8362 32.2056 303° West  Level Estimated
Tue 07:03:00 AM 57.8965 32.0269 302° West  Level Estimated
Tue 07:04:00 AM 57.9566 31.8476 302° West  Level Estimated
Tue 07:05:00 AM 58.0164 31.6676 302° West  Level Estimated
Tue 07:06:00 AM 58.0760 31.4871 302° West  Level Estimated
Tue 07:07:00 AM 58.1352 31.3060 302° West  Level Estimated
Tue 07:08:00 AM 58.1943 31.1242 302° West  Level Estimated
Tue 07:09:00 AM 58.2531 30.9419 302° West  Level Estimated
Tue 07:10:00 AM 58.3116 30.7590 301° West  Level Estimated
Tue 07:10:03 AM 56.6711 30.8177 301° West 418 481 34,000  Level FlightAware ADS-B
Tue 07:11:18 AM 56.8066 30.4819 306° West 422 486 34,000  Level FlightAware ADS-B
Tue 07:12:02 AM 56.8549 30.3519 304° West 424 488 34,000  Level FlightAware ADS-B
Tue 07:13:32 AM 56.9504 30.0917 304° West 426 490 34,000  Level FlightAware ADS-B
Tue 07:14:12 AM 56.9756 30.0229 304° West 426 490 34,000  Level FlightAware ADS-B
Tue 07:15:16 AM 57.0522 29.8114 304° West 424 488 34,000  Level FlightAware ADS-B
Tue 07:16:16 AM 57.1283 29.5997 304° West 426 490 34,000  Level FlightAware ADS-B
Tue 07:17:19 AM 57.1984 29.4029 303° West 427 491 34,000  Level FlightAware ADS-B
Tue 07:18:19 AM 57.2631 29.2198 303° West 428 493 34,000  Level FlightAware ADS-B
Tue 07:19:20 AM 57.3279 29.0354 303° West 427 491 34,000  Level FlightAware ADS-B
Tue 07:20:19 AM 57.3911 28.8543 303° West 430 495 34,000  Level FlightAware ADS-B
Tue 07:21:16 AM 57.4527 28.6765 303° West 429 494 34,000  Level FlightAware ADS-B
Tue 07:22:16 AM 57.5165 28.4906 303° West 425 489 34,000  Level FlightAware ADS-B
Tue 07:23:17 AM 57.5802 28.3037 302° West 426 490 34,000  Level FlightAware ADS-B
Tue 07:24:34 AM 57.6601 28.0673 302° West 426 490 34,000  Level FlightAware ADS-B
Tue 07:26:09 AM 57.7606 27.7667 302° West 430 495 34,000  Level FlightAware ADS-B
Tue 07:27:15 AM 57.7899 27.6787 302° West 429 494 34,000  Level FlightAware ADS-B
Tue 07:27:33 AM 57.7898 27.6787 180° South 417 480 34,000  Level FlightAware ADS-B
Tue 07:28:19 AM 57.8653 27.3893 296° West 419 482 34,000  Level FlightAware ADS-B
Tue 07:29:10 AM 57.9094 27.1705 291° West 420 483 34,000  Level FlightAware ADS-B
Tue 07:30:20 AM 57.9385 27.0257 291° West 422 486 34,000  Level FlightAware ADS-B
Tue 07:31:14 AM 57.9939 26.7472 291° West 422 486 34,000  Level FlightAware ADS-B
Tue 07:33:08 AM 58.0692 26.3624 298° West 423 487 34,000  Level FlightAware ADS-B
Tue 07:34:18 AM 58.1166 26.1161 290° West 424 488 34,000  Level FlightAware ADS-B
Tue 07:35:18 AM 58.1572 25.9024 290° West 426 490 34,000  Level FlightAware ADS-B
Tue 07:36:17 AM 58.1572 25.9024 290° West 429 494 34,000  Level FlightAware ADS-B
Tue 07:37:20 AM 58.2380 25.4718 290° West 429 494 34,000  Level FlightAware ADS-B
Tue 07:38:11 AM 58.2710 25.2902 289° West 433 498 34,000  Level FlightAware ADS-B
Tue 07:54:55 AM 58.8324 21.5229 294° West 441 507 34,000  Level FlightAware ADS-B
Tue 07:55:36 AM 58.8511 21.3779 284° West 440 506 34,000  Level FlightAware ADS-B
Tue 07:56:09 AM 58.8720 21.2597 289° West 442 509 34,000  Level FlightAware ADS-B
Tue 07:56:49 AM 58.9008 21.0981 289° West 441 507 34,000  Level FlightAware ADS-B
Tue 07:57:36 AM 58.9292 20.9299 288° West 442 509 34,000  Level FlightAware ADS-B
Tue 07:58:11 AM 58.9522 20.7915 288° West 439 505 34,000  Level FlightAware ADS-B
Tue 07:58:56 AM 58.9785 20.6321 288° West 442 509 34,000  Level FlightAware ADS-B
Tue 07:59:34 AM 59.0032 20.4810 288° West 443 510 34,000  Level FlightAware ADS-B
Tue 08:00:16 AM 59.0292 20.3216 288° West 443 510 34,000  Level FlightAware ADS-B
Tue 08:00:56 AM 59.0529 20.1738 287° West 444 511 34,000  Level FlightAware ADS-B
Tue 08:01:36 AM 59.0765 20.0254 287° West 444 511 34,000  Level FlightAware ADS-B
Tue 08:02:17 AM 59.1024 19.8612 287° West 443 510 34,000  Level FlightAware ADS-B
Tue 08:02:57 AM 59.1244 19.7205 287° West 444 511 34,000  Level FlightAware ADS-B
Tue 08:03:36 AM 59.1492 19.5611 287° West 446 513 34,000  Level FlightAware ADS-B
Tue 08:04:16 AM 59.1728 19.4073 287° West 446 513 34,000  Level FlightAware ADS-B
Tue 08:04:56 AM 59.1961 19.2546 287° West 447 514 34,000  Level FlightAware ADS-B
Tue 08:05:36 AM 59.2195 19.0996 287° West 447 514 34,000  Level FlightAware ADS-B
Tue 08:06:16 AM 59.2414 18.9538 286° West 448 516 34,000  Level FlightAware ADS-B
Tue 08:06:56 AM 59.2652 18.7934 286° West 449 517 34,000  Level FlightAware ADS-B
Tue 08:07:36 AM 59.2876 18.6411 286° West 447 514 34,000  Level FlightAware ADS-B
Tue 08:07:58 AM 59.3015 18.5454 286° West 444 511 34,000  Level FlightAware ADS-B
Tue 08:08:36 AM 59.3218 18.4041 286° West 446 513 34,000  Level FlightAware ADS-B
Tue 08:09:17 AM 59.3447 18.2446 286° West 446 513 34,000  Level FlightAware ADS-B
Tue 08:09:56 AM 59.3663 18.0922 286° West 447 514 34,000  Level FlightAware ADS-B
Tue 08:10:37 AM 59.3887 17.9335 286° West 447 514 34,000  Level FlightAware ADS-B
Tue 08:11:16 AM 59.4101 17.7799 285° West 447 514 34,000  Level FlightAware ADS-B
Tue 08:11:56 AM 59.4319 17.6221 285° West 445 512 34,000  Level FlightAware ADS-B
Tue 08:12:35 AM 59.4527 17.4700 285° West 446 513 34,000  Level FlightAware ADS-B
Tue 08:13:17 AM 59.4744 17.3091 285° West 446 513 34,000  Level FlightAware ADS-B
Tue 08:13:53 AM 59.4894 17.1965 285° West 446 513 34,000  Level FlightAware ADS-B
Tue 08:14:37 AM 59.5154 17.0009 285° West 440 506 34,000  Level FlightAware ADS-B
Tue 08:15:16 AM 59.5358 16.8450 285° West 441 507 34,000  Level FlightAware ADS-B
Tue 08:15:57 AM 59.5556 16.6919 284° West 442 509 34,000  Level FlightAware ADS-B
Tue 08:16:36 AM 59.5757 16.5349 284° West 442 509 34,000  Level FlightAware ADS-B
Tue 08:17:17 AM 59.5946 16.3865 284° West 444 511 34,000  Level FlightAware ADS-B
Tue 08:17:55 AM 59.6147 16.2272 284° West 446 513 34,000  Level FlightAware ADS-B
Tue 08:18:36 AM 59.6348 16.0653 284° West 445 512 34,000  Level FlightAware ADS-B
Tue 08:18:48 AM 59.6403 16.0212 284° West 444 511 34,000  Level FlightAware ADS-B
Tue 08:19:06 AM 59.6496 15.9458 284° West 444 511 34,000  Level FlightAware ADS-B
Tue 08:53:17 AM 60.6305 7.5534 283° West 454 522 34,000  Level FlightAware ADS-B
Tue 08:53:58 AM 60.6489 7.3804 282° West 452 520 34,000  Level FlightAware ADS-B
Tue 08:54:39 AM 60.6666 7.2112 282° West 451 519 34,000  Level FlightAware ADS-B
Tue 08:55:19 AM 60.6838 7.0457 282° West 450 518 34,000  Level FlightAware ADS-B
Tue 08:55:59 AM 60.7006 6.8815 282° West 449 517 34,000  Level FlightAware ADS-B
Tue 08:56:38 AM 60.7172 6.7179 282° West 450 518 34,000  Level FlightAware ADS-B
Tue 08:57:14 AM 60.7319 6.5702 282° West 449 517 34,000  Level FlightAware ADS-B
Tue 08:57:56 AM 60.7493 6.3939 281° West 449 517 34,000  Level FlightAware ADS-B
Tue 08:58:38 AM 60.7662 6.2202 281° West 454 522 34,000  Level FlightAware ADS-B
Tue 08:59:17 AM 60.7821 6.0562 281° West 454 522 34,000  Level FlightAware ADS-B
Tue 08:59:59 AM 60.7987 5.8795 281° West 453 521 34,000  Level FlightAware ADS-B
Tue 09:00:39 AM 60.8140 5.7138 281° West 451 519 34,000  Level FlightAware ADS-B
Tue 09:01:14 AM 60.8278 5.5634 281° West 452 520 34,000 Level FlightAware ADS-B
Tue 09:03:00 AM 60.8616 5.1611 280° West  Level Estimated
Tue 09:04:00 AM 60.8803 4.9331 280° West  Level Estimated
Tue 09:05:00 AM 60.8985 4.7047 279° West  Level Estimated
Tue 09:06:00 AM 60.9164 4.4761 279° West  Level Estimated
Tue 09:07:00 AM 60.9339 4.2473 279° West  Level Estimated
Tue 09:08:00 AM 60.9510 4.0181 279° West  Level Estimated
Tue 09:09:00 AM 60.9677 3.7888 279° West  Level Estimated
Tue 09:10:00 AM 60.9840 3.5592 278° West  Level Estimated
Tue 09:11:00 AM 60.9999 3.3294 278° West  Level Estimated
Tue 09:12:00 AM 61.0154 3.0993 278° West  Level Estimated
Tue 09:13:00 AM 61.0306 2.8691 278° West  Level Estimated
Tue 09:14:00 AM 61.0453 2.6386 278° West  Level Estimated
Tue 09:15:00 AM 61.0597 2.4079 277° West  Level Estimated
Tue 09:16:00 AM 61.0737 2.1770 277° West  Level Estimated
Tue 09:17:00 AM 61.0872 1.9459 277° West  Level Estimated
Tue 09:18:00 AM 61.1004 1.7145 277° West  Level Estimated
Tue 09:19:00 AM 61.1132 1.4830 277° West  Level Estimated
Tue 09:20:00 AM 61.1255 1.2514 276° West  Level Estimated
Tue 09:21:00 AM 61.1375 1.0195 276° West  Level Estimated
Tue 09:22:00 AM 61.1491 0.7875 276° West  Level Estimated
Tue 09:23:00 AM 61.1603 0.5553 276° West  Level Estimated
Tue 09:24:00 AM 61.1711 0.3229 276° West  Level Estimated
Tue 09:25:00 AM 61.1815 0.0904 275° West  Level Estimated
Tue 09:26:00 AM 61.1915 -0.1423 275° West  Level Estimated
Tue 09:27:00 AM 61.2011 -0.3751 275° West  Level Estimated
Tue 09:28:00 AM 61.2103 -0.6080 275° West  Level Estimated
Tue 09:29:00 AM 61.2191 -0.8411 275° West  Level Estimated
Tue 09:30:00 AM 61.2274 -1.0743 274° West  Level Estimated
Tue 09:31:00 AM 61.2354 -1.3077 274° West  Level Estimated
Tue 09:32:00 AM 61.2430 -1.5411 274° West  Level Estimated
Tue 09:33:00 AM 61.2502 -1.7747 274° West  Level Estimated
Tue 09:34:00 AM 61.2570 -2.0083 274° West  Level Estimated
Tue 09:35:00 AM 61.2634 -2.2421 273° West  Level Estimated
Tue 09:36:00 AM 61.2694 -2.4759 273° West  Level Estimated
Tue 09:37:00 AM 61.2750 -2.7099 273° West  Level Estimated
Tue 09:38:00 AM 61.2801 -2.9439 273° West  Level Estimated
Tue 09:39:00 AM 61.2849 -3.1780 273° West  Level Estimated
Tue 09:40:00 AM 61.2893 -3.4121 272° West  Level Estimated
Tue 09:41:00 AM 61.2933 -3.6464 272° West  Level Estimated
Tue 09:42:00 AM 61.2968 -3.8807 272° West  Level Estimated
Tue 09:43:00 AM 61.3000 -4.1150 272° West  Level Estimated
Tue 09:44:00 AM 61.3027 -4.3493 272° West  Level Estimated
Tue 09:45:00 AM 61.3051 -4.5838 271° West  Level Estimated
Tue 09:46:00 AM 61.3071 -4.8182 271° West  Level Estimated
Tue 09:47:00 AM 61.3086 -5.0527 271° West  Level Estimated
Tue 09:48:00 AM 61.3097 -5.2872 271° West  Level Estimated
Tue 09:49:00 AM 61.3105 -5.5217 270° West  Level Estimated
Tue 09:50:00 AM 61.3108 -5.7562 270° West  Level Estimated
Tue 09:51:00 AM 61.3108 -5.9907 270° West  Level Estimated
Tue 09:52:00 AM 61.3103 -6.2252 270° West  Level Estimated
Tue 09:53:00 AM 61.3094 -6.4597 270° West  Level Estimated
Tue 09:54:00 AM 61.3081 -6.6942 269° West  Level Estimated
Tue 09:55:00 AM 61.3064 -6.9286 269° West  Level Estimated
Tue 09:56:00 AM 61.3044 -7.1631 269° West  Level Estimated
Tue 09:57:00 AM 61.3019 -7.3975 269° West  Level Estimated
Tue 09:58:00 AM 61.2990 -7.6318 269° West  Level Estimated
Tue 09:59:00 AM 61.2957 -7.8661 268° West  Level Estimated
Tue 10:00:00 AM 61.2920 -8.1004 268° West  Level Estimated
Tue 10:01:00 AM 61.2878 -8.3346 268° West  Level Estimated
Tue 10:02:00 AM 61.2833 -8.5688 268° West  Level Estimated
Tue 10:03:00 AM 61.2784 -8.8028 268° West  Level Estimated
Tue 10:04:00 AM 61.2731 -9.0368 267° West  Level Estimated
Tue 10:05:00 AM 61.2674 -9.2707 267° West  Level Estimated
Tue 10:06:00 AM 61.2613 -9.5045 267° West  Level Estimated
Tue 10:07:00 AM 61.2547 -9.7383 267° West  Level Estimated
Tue 10:08:00 AM 61.2478 -9.9719 267° West  Level Estimated
Tue 10:09:00 AM 61.2405 -10.2054 266° West  Level Estimated
Tue 10:10:00 AM 61.2328 -10.4388 266° West  Level Estimated
Tue 10:11:00 AM 61.2246 -10.6721 266° West  Level Estimated
Tue 10:12:00 AM 61.2161 -10.9053 266° West  Level Estimated
Tue 10:13:00 AM 61.2072 -11.1383 266° West  Level Estimated
Tue 10:14:00 AM 61.1978 -11.3712 265° West  Level Estimated
Tue 10:15:00 AM 61.1881 -11.6040 265° West  Level Estimated
Tue 10:16:00 AM 61.1780 -11.8366 265° West  Level Estimated
Tue 10:17:00 AM 61.1674 -12.0691 265° West  Level Estimated
Tue 10:18:00 AM 61.1565 -12.3014 265° West  Level Estimated
Tue 10:19:00 AM 61.1452 -12.5335 264° West  Level Estimated
Tue 10:20:00 AM 61.1335 -12.7655 264° West  Level Estimated
Tue 10:21:00 AM 61.1214 -12.9973 264° West  Level Estimated
Tue 10:22:00 AM 61.1088 -13.2289 264° West  Level Estimated
Tue 10:23:00 AM 61.0959 -13.4603 264° West  Level Estimated
Tue 10:24:00 AM 61.0826 -13.6916 263° West  Level Estimated
Tue 10:25:00 AM 61.0689 -13.9226 263° West  Level Estimated
Tue 10:26:00 AM 61.0549 -14.1535 263° West  Level Estimated
Tue 10:27:00 AM 61.0404 -14.3841 263° West  Level Estimated
Tue 10:28:00 AM 61.0255 -14.6145 263° West  Level Estimated
Tue 10:29:00 AM 61.0102 -14.8447 262° West  Level Estimated
Tue 10:30:00 AM 60.9945 -15.0747 262° West  Level Estimated
Tue 10:31:00 AM 60.9785 -15.3044 262° West  Level Estimated
Tue 10:32:00 AM 60.9621 -15.5339 262° West  Level Estimated
Tue 10:33:00 AM 60.9452 -15.7632 262° West  Level Estimated
Tue 10:34:00 AM 60.9280 -15.9923 261° West  Level Estimated
Tue 10:35:00 AM 60.9104 -16.2210 261° West  Level Estimated
Tue 10:36:00 AM 60.8924 -16.4496 261° West  Level Estimated
Tue 10:37:00 AM 60.8740 -16.6778 261° West  Level Estimated
Tue 10:38:00 AM 60.8552 -16.9058 261° West  Level Estimated
Tue 10:39:00 AM 60.8361 -17.1335 260° West  Level Estimated
Tue 10:40:00 AM 60.8165 -17.3610 260° West  Level Estimated
Tue 10:41:00 AM 60.7966 -17.5881 260° West  Level Estimated
Tue 10:42:00 AM 60.7763 -17.8150 260° West  Level Estimated
Tue 10:43:00 AM 60.7556 -18.0416 260° West  Level Estimated
Tue 10:44:00 AM 60.7345 -18.2679 259° West  Level Estimated
Tue 10:45:00 AM 60.7131 -18.4939 259° West  Level Estimated
Tue 10:46:00 AM 60.6912 -18.7196 259° West  Level Estimated
Tue 10:47:00 AM 60.6690 -18.9450 259° West  Level Estimated
Tue 10:48:00 AM 60.6464 -19.1701 259° West  Level Estimated
Tue 10:49:00 AM 60.6235 -19.3948 258° West  Level Estimated
Tue 10:50:00 AM 60.6001 -19.6192 258° West  Level Estimated
Tue 10:51:00 AM 60.5764 -19.8433 258° West  Level Estimated
Tue 10:52:00 AM 60.5523 -20.0671 258° West  Level Estimated
Tue 10:53:00 AM 60.5278 -20.2906 258° West  Level Estimated
Tue 10:54:00 AM 60.5030 -20.5137 257° West  Level Estimated
Tue 10:55:00 AM 60.4778 -20.7364 257° West  Level Estimated
Tue 10:56:00 AM 60.4522 -20.9588 257° West  Level Estimated
Tue 10:57:00 AM 60.4262 -21.1808 257° West  Level Estimated
Tue 10:58:00 AM 60.3999 -21.4025 257° West  Level Estimated
Tue 10:59:00 AM 60.3732 -21.6239 256° West  Level Estimated
Tue 11:00:00 AM 60.3462 -21.8448 256° West  Level Estimated
Tue 11:01:00 AM 60.3187 -22.0654 256° West  Level Estimated
Tue 11:02:00 AM 60.2910 -22.2857 256° West  Level Estimated
Tue 11:03:00 AM 60.2628 -22.5055 256° West  Level Estimated
Tue 11:04:00 AM 60.2343 -22.7250 255° West  Level Estimated
Tue 11:05:00 AM 60.2054 -22.9441 255° West  Level Estimated
Tue 11:06:00 AM 60.1762 -23.1628 255° West  Level Estimated
Tue 11:07:00 AM 60.1466 -23.3811 255° West  Level Estimated
Tue 11:08:00 AM 60.1166 -23.5990 255° West  Level Estimated
Tue 11:09:00 AM 60.0863 -23.8165 254° West  Level Estimated
Tue 11:10:00 AM 60.0556 -24.0336 254° West  Level Estimated
Tue 11:11:00 AM 60.0246 -24.2503 254° West  Level Estimated
Tue 11:12:00 AM 59.9933 -24.4666 254° West  Level Estimated
Tue 11:13:00 AM 59.9615 -24.6825 254° West  Level Estimated
Tue 11:14:00 AM 59.9294 -24.8980 254° West  Level Estimated
Tue 11:15:00 AM 59.8970 -25.1130 253° West  Level Estimated
Tue 11:16:00 AM 59.8642 -25.3277 253° West  Level Estimated
Tue 11:17:00 AM 59.8311 -25.5419 253° West  Level Estimated
Tue 11:18:00 AM 59.7976 -25.7557 253° West  Level Estimated
Tue 11:19:00 AM 59.7638 -25.9690 253° West  Level Estimated
Tue 11:20:00 AM 59.7296 -26.1819 252° West  Level Estimated
Tue 11:21:00 AM 59.6951 -26.3944 252° West  Level Estimated
Tue 11:22:00 AM 59.6603 -26.6064 252° West  Level Estimated
Tue 11:23:00 AM 59.6251 -26.8180 252° West  Level Estimated
Tue 11:24:00 AM 59.5895 -27.0292 252° West  Level Estimated
Tue 11:25:00 AM 59.5536 -27.2399 252° West  Level Estimated
Tue 11:26:00 AM 59.5174 -27.4501 251° West  Level Estimated
Tue 11:27:00 AM 59.4809 -27.6599 251° West  Level Estimated
Tue 11:28:00 AM 59.4440 -27.8693 251° West  Level Estimated
Tue 11:29:00 AM 59.4068 -28.0781 251° West  Level Estimated
Tue 11:30:00 AM 59.3692 -28.2866 251° West  Level Estimated
Tue 11:31:00 AM 59.3313 -28.4945 250° West  Level Estimated
Tue 11:32:00 AM 59.2931 -28.7020 250° West  Level Estimated
Tue 11:33:00 AM 59.2546 -28.9090 250° West  Level Estimated
Tue 11:34:00 AM 59.2157 -29.1156 250° West  Level Estimated
Tue 11:35:00 AM 59.1765 -29.3217 250° West  Level Estimated
Tue 11:36:00 AM 59.1370 -29.5273 250° West  Level Estimated
Tue 11:37:00 AM 59.0971 -29.7325 249° West  Level Estimated
Tue 11:38:00 AM 59.0570 -29.9371 249° West  Level Estimated
Tue 11:39:00 AM 59.0165 -30.1413 249° West  Level Estimated
Tue 11:40:00 AM 58.9757 -30.3450 249° West  Level Estimated
Tue 11:41:00 AM 58.9346 -30.5482 249° West  Level Estimated
Tue 11:42:00 AM 58.8931 -30.7509 248° West  Level Estimated
Tue 11:43:00 AM 58.8513 -30.9532 248° West  Level Estimated
Tue 11:44:00 AM 58.8092 -31.1549 248° West  Level Estimated
Tue 11:45:00 AM 58.7668 -31.3562 248° West  Level Estimated
Tue 11:46:00 AM 58.7241 -31.5569 248° West  Level Estimated
Tue 11:47:00 AM 58.6811 -31.7572 248° West  Level Estimated
Tue 11:48:00 AM 58.6378 -31.9570 247° West  Level Estimated
Tue 11:49:00 AM 58.5942 -32.1563 247° West  Level Estimated
Tue 11:50:00 AM 58.5502 -32.3551 247° West  Level Estimated
Tue 11:51:00 AM 58.5060 -32.5533 247° West  Level Estimated
Tue 11:52:00 AM 58.4614 -32.7511 247° West  Level Estimated
Tue 11:53:00 AM 58.4165 -32.9484 247° West  Level Estimated
Tue 11:54:00 AM 58.3714 -33.1452 246° West  Level Estimated
Tue 11:55:00 AM 58.3259 -33.3414 246° West  Level Estimated
Tue 11:56:00 AM 58.2802 -33.5372 246° West  Level Estimated
Tue 11:57:00 AM 58.2341 -33.7325 246° West  Level Estimated
Tue 11:58:00 AM 58.1877 -33.9272 246° West  Level Estimated
Tue 11:59:00 AM 58.1411 -34.1214 246° West  Level Estimated
Tue 12:00:00 PM 58.0941 -34.3152 245° Southwest  Level Estimated
Tue 12:01:00 PM 58.0469 -34.5084 245° Southwest  Level Estimated
Tue 12:02:00 PM 57.9994 -34.7011 245° Southwest  Level Estimated
Tue 12:03:00 PM 57.9515 -34.8933 245° Southwest  Level Estimated
Tue 12:04:00 PM 57.9034 -35.0850 245° Southwest  Level Estimated
Tue 12:05:00 PM 57.8550 -35.2762 245° Southwest  Level Estimated
Tue 12:06:00 PM 57.8063 -35.4668 244° Southwest  Level Estimated
Tue 12:07:00 PM 57.7550 -35.6661 244° Southwest  Level Estimated
Tue 12:08:00 PM 57.7033 -35.8649 244° Southwest  Level Estimated
Tue 12:09:00 PM 57.6513 -36.0632 244° Southwest  Level Estimated
Tue 12:10:00 PM 57.5990 -36.2609 244° Southwest  Level Estimated
Tue 12:11:00 PM 57.5464 -36.4580 244° Southwest  Level Estimated
Tue 12:12:00 PM 57.4935 -36.6546 243° Southwest  Level Estimated
Tue 12:13:00 PM 57.4403 -36.8506 243° Southwest  Level Estimated
Tue 12:14:00 PM 57.3867 -37.0460 243° Southwest  Level Estimated
Tue 12:15:00 PM 57.3329 -37.2408 243° Southwest  Level Estimated
Tue 12:16:00 PM 57.2788 -37.4351 243° Southwest  Level Estimated
Tue 12:17:00 PM 57.2244 -37.6288 243° Southwest  Level Estimated
Tue 12:18:00 PM 57.1696 -37.8219 242° Southwest  Level Estimated
Tue 12:19:00 PM 57.1146 -38.0145 242° Southwest  Level Estimated
Tue 12:20:00 PM 57.0593 -38.2065 242° Southwest  Level Estimated
Tue 12:21:00 PM 57.0037 -38.3979 242° Southwest  Level Estimated
Tue 12:22:00 PM 56.9478 -38.5887 242° Southwest  Level Estimated
Tue 12:23:00 PM 56.8916 -38.7790 242° Southwest  Level Estimated
Tue 12:24:00 PM 56.8351 -38.9687 242° Southwest  Level Estimated
Tue 12:25:00 PM 56.7784 -39.1578 241° Southwest  Level Estimated
Tue 12:26:00 PM 56.7213 -39.3464 241° Southwest  Level Estimated
Tue 12:27:00 PM 56.6640 -39.5343 241° Southwest  Level Estimated
Tue 12:28:00 PM 56.6064 -39.7217 241° Southwest  Level Estimated
Tue 12:29:00 PM 56.5485 -39.9086 241° Southwest  Level Estimated
Tue 12:30:00 PM 56.4903 -40.0948 241° Southwest  Level Estimated
Tue 12:31:00 PM 56.4319 -40.2805 240° Southwest  Level Estimated
Tue 12:32:00 PM 56.3731 -40.4656 240° Southwest  Level Estimated
Tue 12:33:00 PM 56.3142 -40.6502 240° Southwest  Level Estimated
Tue 12:34:00 PM 56.2549 -40.8341 240° Southwest  Level Estimated
Tue 12:35:00 PM 56.1953 -41.0175 240° Southwest  Level Estimated
Tue 12:36:00 PM 56.1355 -41.2004 240° Southwest  Level Estimated
Tue 12:37:00 PM 56.0754 -41.3826 239° Southwest  Level Estimated
Tue 12:38:00 PM 56.0151 -41.5643 239° Southwest  Level Estimated
Tue 12:39:00 PM 55.9544 -41.7454 239° Southwest  Level Estimated
Tue 12:40:00 PM 55.8936 -41.9260 239° Southwest  Level Estimated
Tue 12:41:00 PM 55.8324 -42.1060 239° Southwest  Level Estimated
Tue 12:42:00 PM 55.7710 -42.2854 239° Southwest  Level Estimated
Tue 12:43:00 PM 55.7093 -42.4643 239° Southwest  Level Estimated
Tue 12:44:00 PM 55.6474 -42.6426 238° Southwest  Level Estimated
Tue 12:45:00 PM 55.5852 -42.8203 238° Southwest  Level Estimated
Tue 12:46:00 PM 55.5228 -42.9975 238° Southwest  Level Estimated
Tue 12:47:00 PM 55.4601 -43.1741 238° Southwest  Level Estimated
Tue 12:48:00 PM 55.3971 -43.3501 238° Southwest  Level Estimated
Tue 12:49:00 PM 55.3339 -43.5256 238° Southwest  Level Estimated
Tue 12:50:00 PM 55.2705 -43.7005 238° Southwest  Level Estimated
Tue 12:51:00 PM 55.2068 -43.8749 237° Southwest  Level Estimated
Tue 12:52:00 PM 55.1428 -44.0487 237° Southwest  Level Estimated
Tue 12:53:00 PM 55.0786 -44.2219 237° Southwest  Level Estimated
Tue 12:54:00 PM 55.0142 -44.3946 237° Southwest  Level Estimated
Tue 12:55:00 PM 54.9495 -44.5667 237° Southwest  Level Estimated
Tue 12:56:00 PM 54.8846 -44.7383 237° Southwest  Level Estimated
Tue 12:57:00 PM 54.8194 -44.9094 237° Southwest  Level Estimated
Tue 12:58:00 PM 54.7540 -45.0798 236° Southwest  Level Estimated
Tue 12:59:00 PM 54.6883 -45.2498 236° Southwest  Level Estimated
Tue 01:00:00 PM 54.6224 -45.4192 236° Southwest  Level Estimated
Tue 01:01:00 PM 54.5563 -45.5880 236° Southwest  Level Estimated
Tue 01:02:00 PM 54.4900 -45.7563 236° Southwest  Level Estimated
Tue 01:03:00 PM 54.4234 -45.9240 236° Southwest  Level Estimated
Tue 01:04:00 PM 54.3565 -46.0912 236° Southwest  Level Estimated
Tue 01:05:00 PM 54.2895 -46.2578 235° Southwest  Level Estimated
Tue 01:06:00 PM 54.2222 -46.4239 235° Southwest  Level Estimated
Tue 01:07:00 PM 54.1547 -46.5895 235° Southwest  Level Estimated
Tue 01:08:00 PM 54.0870 -46.7545 235° Southwest  Level Estimated
Tue 01:09:00 PM 54.0190 -46.9190 235° Southwest  Level Estimated
Tue 01:10:00 PM 53.9510 -47.0825 235° Southwest  Level Estimated
Tue 01:11:00 PM 53.8828 -47.2454 235° Southwest  Level Estimated
Tue 01:12:00 PM 53.8144 -47.4079 235° Southwest  Level Estimated
Tue 01:13:00 PM 53.7457 -47.5698 234° Southwest  Level Estimated
Tue 01:14:00 PM 53.6768 -47.7312 234° Southwest  Level Estimated
Tue 01:15:00 PM 53.6077 -47.8921 234° Southwest  Level Estimated
Tue 01:16:00 PM 53.5384 -48.0524 234° Southwest  Level Estimated
Tue 01:17:00 PM 53.4689 -48.2122 234° Southwest  Level Estimated
Tue 01:18:00 PM 53.3991 -48.3715 234° Southwest  Level Estimated
Tue 01:19:00 PM 53.3292 -48.5303 234° Southwest  Level Estimated
Tue 01:20:00 PM 53.2590 -48.6885 233° Southwest  Level Estimated
Tue 01:21:00 PM 53.1886 -48.8463 233° Southwest  Level Estimated
Tue 01:21:34 PM 61.8167 -57.7000 233° Southwest 210 242 36,000  Level Gander Center
Tue 01:22:00 PM 53.1181 -49.0035 233° Southwest  Level Estimated
Tue 01:22:34 PM 61.7500 -57.8833 233° Southwest 380 437 36,000  Level Gander Center
Tue 01:23:00 PM 53.0473 -49.1602 233° Southwest  Level Estimated
Tue 01:23:34 PM 61.7000 -58.0667 240° Southwest 380 437 36,000  Level Gander Center
Tue 01:24:00 PM 52.9763 -49.3163 233° Southwest  Level Estimated
Tue 01:24:34 PM 61.6333 -58.2167 227° Southwest 380 437 36,000  Level Gander Center
Tue 01:25:00 PM 52.9051 -49.4720 233° Southwest  Level Estimated
Tue 01:25:34 PM 61.5667 -58.3833 230° Southwest 380 437 36,000  Level Gander Center
Tue 01:26:00 PM 52.8337 -49.6272 233° Southwest  Level Estimated
Tue 01:26:34 PM 61.5167 -58.6000 244° Southwest 380 437 36,000  Level Gander Center
Tue 01:27:00 PM 52.7621 -49.7818 233° Southwest  Level Estimated
Tue 01:27:34 PM 61.4500 -58.7833 233° Southwest 380 437 36,000  Level Gander Center
Tue 01:29:16 PM 61.3333 -59.1000 233° Southwest 380 437 36,000  Level Gander Center
Tue 01:30:16 PM 61.2667 -59.2833 233° Southwest 390 449 36,000  Level Gander Center
Tue 01:31:16 PM 61.2000 -59.4500 230° Southwest 390 449 36,000  Level Gander Center
Tue 01:36:16 PM 60.9333 -60.5000 251° West 440 506 36,000  Level Gander Center
Tue 01:37:16 PM 60.9000 -60.7333 254° West 450 518 36,000  Level Gander Center
Tue 01:38:16 PM 60.8667 -61.0167 257° West 450 518 36,000  Level Gander Center
Tue 01:39:16 PM 60.8167 -61.2500 246° West 450 518 36,000  Level Gander Center
Tue 01:40:00 PM 60.8415 -60.9605 252° West  Level FlightAware Approximate
Tue 01:40:16 PM 60.7833 -61.4833 254° West 450 518 36,000  Level Gander Center
Tue 01:41:00 PM 60.8092 -61.1502 251° West  Level FlightAware Approximate
Tue 01:41:16 PM 60.7333 -61.7167 246° West 450 518 36,000  Level Gander Center
Tue 01:43:00 PM 60.6674 -62.0367 247° West  Level FlightAware Approximate
Tue 01:44:16 PM 60.6167 -62.4667 247° West 460 529 36,000  Level Gander Center
Tue 01:45:16 PM 60.5667 -62.7000 247° West 460 529 36,000  Level Gander Center
Tue 01:46:16 PM 60.5167 -62.9667 249° West 460 529 36,000  Level Gander Center
Tue 01:47:16 PM 60.4667 -63.2000 247° West 460 529 36,000  Level Gander Center
Tue 01:48:16 PM 60.4333 -63.4333 254° West 460 529 36,000  Level Gander Center
Tue 01:49:16 PM 60.3833 -63.6667 247° West 460 529 36,000  Level Gander Center
Tue 01:50:16 PM 60.3500 -63.9000 254° West 460 529 36,000  Level Gander Center
Tue 01:51:16 PM 60.3000 -64.1667 249° West 460 529 36,000  Level Gander Center
Tue 01:52:16 PM 60.2500 -64.4000 247° West 470 541 36,000  Level Gander Center
Tue 01:53:16 PM 60.2167 -64.6333 254° West 470 541 36,000  Level Gander Center
Tue 01:54:34 PM 60.1333 -64.9500 242° Southwest 470 541 36,000  Level Gander Center
Tue 01:55:29 PM 60.0667 -65.1000 228° Southwest 460 529 36,000  Level Montreal Center
Tue 01:56:29 PM 60.0000 -65.2833 234° Southwest 450 518 36,000  Level Montreal Center
Tue 01:57:29 PM 59.9000 -65.4500 220° Southwest 440 506 36,000  Level Montreal Center
Tue 01:58:29 PM 59.8000 -65.6167 220° Southwest 440 506 36,000  Level Montreal Center
Tue 01:59:29 PM 59.7167 -65.7833 225° Southwest 440 506 36,000  Level Montreal Center
Tue 02:00:29 PM 59.6333 -65.9333 222° Southwest 440 506 36,000  Level Montreal Center
Tue 02:01:29 PM 59.5167 -66.1000 216° Southwest 440 506 36,000  Level Montreal Center
Tue 02:02:29 PM 59.4333 -66.2667 226° Southwest 450 518 36,000  Level Montreal Center
Tue 02:03:29 PM 59.3333 -66.4167 217° Southwest 450 518 36,000  Level Montreal Center
Tue 02:04:29 PM 59.2500 -66.5667 223° Southwest 450 518 36,000  Level Montreal Center
Tue 02:08:34 PM 58.8500 -67.2833 206° Southwest 450 518 36,000  Level Gander Center
Tue 02:09:34 PM 58.7667 -67.4167 220° Southwest 450 518 36,000  Level Gander Center
Tue 02:10:29 PM 58.6667 -67.5167 207° Southwest 440 506 36,000  Level Montreal Center
Tue 02:11:29 PM 58.5833 -67.6667 223° Southwest 440 506 36,000  Level Montreal Center
Tue 02:12:29 PM 58.4833 -67.8167 218° Southwest 440 506 36,000  Level Montreal Center
Tue 02:13:00 PM 58.5114 -67.2865 207° Southwest  Level FlightAware Approximate
Tue 02:13:29 PM 58.3833 -67.9667 218° Southwest 450 518 36,000  Level Montreal Center
Tue 02:14:00 PM 58.4236 -67.3699 206° Southwest  Level FlightAware Approximate
Tue 02:14:29 PM 58.2667 -68.1167 214° Southwest 450 518 36,000  Level Montreal Center
Tue 02:15:29 PM 58.1833 -68.3000 229° Southwest 470 541 36,000  Level Montreal Center
Tue 02:17:16 PM 58.0000 -68.5167 212° Southwest 470 541 36,000  Level Montreal Center
Tue 02:18:16 PM 57.9167 -68.6333 217° Southwest 450 518 36,000  Level Montreal Center
Tue 02:19:51 PM 57.7500 -68.9167 222° Southwest 450 518 36,000  Level Gander Center
Tue 02:20:51 PM 57.6500 -69.0500 216° Southwest 440 506 36,000  Level Gander Center
Tue 02:21:51 PM 57.5500 -69.1833 216° Southwest 440 506 36,000  Level Gander Center
Tue 02:22:51 PM 57.4500 -69.3167 216° Southwest 440 506 36,000  Level Gander Center
Tue 02:23:51 PM 57.3667 -69.4667 224° Southwest 440 506 36,000  Level Gander Center
Tue 02:26:16 PM 57.1167 -69.7333 210° Southwest 440 506 36,000  Level Montreal Center
Tue 02:27:16 PM 57.0333 -69.8333 213° Southwest 440 506 36,000  Level Montreal Center
Tue 02:28:16 PM 56.9167 -69.9833 215° Southwest 440 506 36,000  Level Montreal Center
Tue 02:29:16 PM 56.8000 -70.1167 212° Southwest 440 506 36,000  Level Montreal Center
Tue 02:30:16 PM 56.7167 -70.2500 221° Southwest 440 506 36,000  Level Montreal Center
Tue 02:31:16 PM 56.6167 -70.3667 213° Southwest 440 506 36,000  Level Montreal Center
Tue 02:32:51 PM 56.4500 -70.6333 222° Southwest 450 518 36,000  Level Gander Center
Tue 02:33:51 PM 56.3333 -70.7500 209° Southwest 450 518 36,000  Level Gander Center
Tue 02:34:51 PM 56.2167 -70.8833 212° Southwest 450 518 36,000  Level Gander Center
Tue 02:35:51 PM 56.1333 -71.0167 222° Southwest 450 518 36,000  Level Gander Center
Tue 02:36:51 PM 56.0167 -71.1333 209° Southwest 450 518 36,000  Level Gander Center
Tue 02:38:51 PM 55.8167 -71.3500 211° Southwest 450 518 36,000  Level Gander Center
Tue 02:39:51 PM 55.7167 -71.4833 217° Southwest 450 518 36,000  Level Gander Center
Tue 02:40:51 PM 55.6167 -71.6000 213° Southwest 450 518 36,000  Level Gander Center
Tue 02:41:51 PM 55.5167 -71.7167 213° Southwest 450 518 36,000  Level Gander Center
Tue 02:42:51 PM 55.4000 -71.8500 213° Southwest 450 518 36,000  Level Gander Center
Tue 02:43:51 PM 55.3167 -71.9667 219° Southwest 440 506 36,000  Level Gander Center
Tue 02:44:51 PM 55.2000 -72.1167 216° Southwest 440 506 36,000  Level Gander Center
Tue 02:45:51 PM 55.0833 -72.2333 210° Southwest 450 518 36,000  Level Gander Center
Tue 02:46:51 PM 55.0000 -72.3500 219° Southwest 450 518 36,000  Level Gander Center
Tue 02:47:51 PM 54.8833 -72.4667 210° Southwest 450 518 36,000  Level Gander Center
Tue 02:48:51 PM 54.7667 -72.5833 210° Southwest 450 518 36,000  Level Gander Center
Tue 02:49:51 PM 54.6667 -72.7000 214° Southwest 450 518 36,000  Level Gander Center
Tue 02:50:51 PM 54.5667 -72.8167 214° Southwest 450 518 36,000  Level Gander Center
Tue 02:51:51 PM 54.4667 -72.9333 214° Southwest 450 518 36,000  Level Gander Center
Tue 02:52:51 PM 54.3500 -73.0500 210° Southwest 450 518 36,000  Level Gander Center
Tue 02:53:51 PM 54.2500 -73.1667 214° Southwest 450 518 36,000  Level Gander Center
Tue 02:54:51 PM 54.1500 -73.2833 214° Southwest 460 529 36,000  Level Gander Center
Tue 02:55:51 PM 54.0333 -73.3833 207° Southwest 450 518 36,000  Level Gander Center
Tue 02:56:51 PM 53.9333 -73.5000 214° Southwest 450 518 36,000  Level Gander Center
Tue 02:57:51 PM 53.8333 -73.6167 215° Southwest 450 518 36,000  Level Gander Center
Tue 02:58:51 PM 53.7167 -73.7167 207° Southwest 450 518 36,000  Level Gander Center
Tue 03:04:51 PM 53.0500 -74.2833 204° Southwest 460 529 36,000  Level Gander Center
Tue 03:05:51 PM 52.9333 -74.4000 211° Southwest 460 529 36,000  Level Gander Center
Tue 03:06:51 PM 52.8167 -74.4833 203° Southwest 460 529 36,000  Level Gander Center
Tue 03:07:51 PM 52.7000 -74.5833 207° Southwest 460 529 36,000  Level Gander Center
Tue 03:08:00 PM 52.9329 -74.3054 204° Southwest  Level FlightAware Approximate
Tue 03:08:51 PM 52.6000 -74.6500 202° Southwest 460 529 36,000  Level Gander Center
Tue 03:09:00 PM 52.8429 -74.3714 204° Southwest  Level FlightAware Approximate
Tue 03:09:51 PM 52.4833 -74.7667 211° Southwest 460 529 36,000  Level Gander Center
Tue 03:10:00 PM 52.7530 -74.4372 204° Southwest  Level FlightAware Approximate
Tue 03:10:51 PM 52.3500 -74.8333 197° South 460 529 36,000  Level Gander Center
Tue 03:11:51 PM 52.2500 -74.9333 211° Southwest 460 529 36,000  Level Gander Center
Tue 03:12:51 PM 52.1333 -75.0167 204° Southwest 460 529 36,000  Level Gander Center
Tue 03:13:51 PM 52.0167 -75.1167 208° Southwest 460 529 36,000  Level Gander Center
Tue 03:14:51 PM 51.9000 -75.2167 208° Southwest 460 529 36,000  Level Gander Center
Tue 03:21:16 PM 51.1833 -75.7167 206° Southwest 450 518 36,000  Level Montreal Center
Tue 03:22:16 PM 51.0667 -75.8000 204° Southwest 450 518 36,000  Level Montreal Center
Tue 03:23:00 PM 51.1409 -75.6310 206° Southwest  Level FlightAware Approximate
Tue 03:23:16 PM 50.9500 -75.8833 204° Southwest 450 518 36,000  Level Montreal Center
Tue 03:24:00 PM 51.0525 -75.7002 206° Southwest  Level FlightAware Approximate
Tue 03:24:16 PM 50.8500 -75.9667 208° Southwest 450 518 36,000  Level Montreal Center
Tue 03:25:00 PM 50.9641 -75.7691 206° Southwest  Level FlightAware Approximate
Tue 03:25:16 PM 50.7167 -76.0500 202° Southwest 450 518 36,000  Level Montreal Center
Tue 03:26:00 PM 50.8756 -75.8378 206° Southwest  Level FlightAware Approximate
Tue 03:26:16 PM 50.6167 -76.1167 203° Southwest 440 506 36,000  Level Montreal Center
Tue 03:27:16 PM 50.5000 -76.2000 204° Southwest 440 506 36,000  Level Montreal Center
Tue 03:28:16 PM 50.3833 -76.3167 213° Southwest 450 518 36,000  Level Montreal Center
Tue 03:29:16 PM 50.2833 -76.3833 203° Southwest 450 518 36,000  Level Montreal Center
Tue 03:30:16 PM 50.1667 -76.4667 205° Southwest 450 518 36,000  Level Montreal Center
Tue 03:31:16 PM 50.0333 -76.5500 202° Southwest 450 518 36,000  Level Montreal Center
Tue 03:32:16 PM 49.9167 -76.6167 200° South 450 518 36,000  Level Montreal Center
Tue 03:33:16 PM 49.8167 -76.7000 208° Southwest 450 518 36,000  Level Montreal Center
Tue 03:34:16 PM 49.7000 -76.8000 209° Southwest 450 518 36,000  Level Montreal Center
Tue 03:35:16 PM 49.5833 -76.8667 200° South 450 518 36,000  Level Montreal Center
Tue 03:36:16 PM 49.4833 -76.9500 208° Southwest 440 506 36,000  Level Montreal Center
Tue 03:37:16 PM 49.3500 -77.0167 198° South 480 552 36,000  Level Montreal Center
Tue 03:38:16 PM 49.2500 -77.1000 209° Southwest 440 506 36,000  Level Montreal Center
Tue 03:39:16 PM 49.1333 -77.1667 201° Southwest 450 518 36,000  Level Montreal Center
Tue 03:40:16 PM 49.0167 -77.2500 205° Southwest 450 518 36,000  Level Montreal Center
Tue 03:41:16 PM 48.8833 -77.3500 206° Southwest 450 518 36,000  Level Montreal Center
Tue 03:42:16 PM 48.7833 -77.4167 204° Southwest 450 518 36,000  Level Montreal Center
Tue 03:52:16 PM 47.6000 -78.1667 201° Southwest 460 529 36,000  Level Montreal Center
Tue 03:53:00 PM 47.7709 -78.0399 201° Southwest  Level FlightAware Approximate
Tue 03:53:16 PM 47.4833 -78.2333 201° Southwest 460 529 36,000  Level Montreal Center
Tue 03:54:00 PM 47.6789 -78.0929 201° Southwest  Level FlightAware Approximate
Tue 03:54:16 PM 47.3833 -78.3000 204° Southwest 450 518 36,000  Level Montreal Center
Tue 03:55:00 PM 47.5870 -78.1457 201° Southwest  Level FlightAware Approximate
Tue 03:55:16 PM 47.2500 -78.3667 199° South 450 518 36,000  Level Montreal Center
Tue 03:56:00 PM 47.4950 -78.1982 201° Southwest  Level FlightAware Approximate
Tue 03:56:16 PM 47.1500 -78.4333 204° Southwest 450 518 36,000  Level Montreal Center
Tue 03:57:00 PM 47.4030 -78.2507 201° Southwest  Level FlightAware Approximate
Tue 03:57:16 PM 47.0000 -78.5000 197° South 450 518 36,000  Level Montreal Center
Tue 03:58:16 PM 46.9000 -78.5500 199° South 450 518 36,000  Level Montreal Center
Tue 03:58:54 PM 46.8167 -78.5667 188° South 460 529 36,000  Level Toronto Center
Tue 03:59:54 PM 46.7167 -78.6333 205° Southwest 450 518 36,000  Level Toronto Center
Tue 04:00:54 PM 46.5833 -78.7167 203° Southwest 450 518 36,000  Level Toronto Center
Tue 04:01:54 PM 46.4833 -78.7667 199° South 450 518 36,000  Level Toronto Center
Tue 04:07:16 PM 45.8500 -79.1500 246° West 440 506 36,000  Level Montreal Center
Tue 04:10:00 PM 45.6081 -79.2402 201° Southwest  Level FlightAware Approximate
Tue 04:11:00 PM 45.4999 -79.2977 200° South  Level FlightAware Approximate
Tue 04:12:00 PM 45.4535 -79.4480 246° West  Level FlightAware Approximate
Tue 04:12:56 PM 45.1936 -79.4766 246° West 451 519 36,000  Level FlightAware ADS-B (CYKF)
Tue 04:14:10 PM 45.0498 -79.5517 200° South 448 516 36,000  Level FlightAware ADS-B (CYKF)
Tue 04:14:54 PM 44.9636 -79.5965 200° South 448 516 36,000  Level FlightAware ADS-B (CYKF)
Tue 04:15:51 PM 44.8535 -79.6537 200° South 448 516 36,000  Level FlightAware ADS-B (CYKF)
Tue 04:17:06 PM 44.7140 -79.7256 200° South 444 511 36,000  Level FlightAware ADS-B (CYKF)
Tue 04:18:39 PM 44.5342 -79.8344 203° Southwest 427 491 36,000  Level FlightAware ADS-B (CYKF)
Tue 04:19:16 PM 44.4740 -79.8898 213° Southwest 426 490 36,000  Level FlightAware ADS-B (CYKF)
Tue 04:20:19 PM 44.3693 -79.9848 213° Southwest 420 483 36,000  Level FlightAware ADS-B (CYKF)
Tue 04:20:57 PM 44.3077 -80.0402 213° Southwest 420 483 36,000  Level FlightAware ADS-B (CYKF)
Tue 04:21:39 PM 44.2424 -80.0985 213° Southwest 414 476 36,000  Level FlightAware ADS-B (CYKF)
Tue 04:22:15 PM 44.1866 -80.1483 213° Southwest 414 476 36,000  Level FlightAware ADS-B (CYKF)
Tue 04:22:58 PM 44.1312 -80.1978 213° Southwest 416 479 36,000  Level FlightAware ADS-B (CYKF)
Tue 04:23:39 PM 44.0469 -80.2725 213° Southwest 413 475 36,000  Level FlightAware ADS-B (CYKF)
Tue 04:24:20 PM 43.9816 -80.3303 213° Southwest 413 475 36,000  Level FlightAware ADS-B (CYKF)
Tue 04:24:54 PM 43.9167 -80.3500 185° South 410 472 36,000  Level Toronto Center
Tue 04:25:11 PM 43.8980 -80.4042 212° Southwest 415 478 36,000  Level FlightAware ADS-B
Tue 04:26:01 PM 43.8197 -80.4732 212° Southwest 416 479 36,000  Level FlightAware ADS-B (CYKF)
Tue 04:26:40 PM 43.7861 -80.5026 212° Southwest 416 479 36,000  Level FlightAware ADS-B (CYKF)
Tue 04:27:19 PM 43.7103 -80.5689 212° Southwest 417 480 36,000  Level FlightAware ADS-B (CYKF)
Tue 04:29:00 PM 43.5453 -80.5879 185° South  Level Estimated
Tue 04:30:00 PM 43.4472 -80.5992 185° South  Level Estimated
Tue 04:30:41 PM 43.3604 -80.8727 185° South 424 488 36,000  Level FlightAware ADS-B (CYKF)
Tue 04:31:20 PM 43.2954 -80.9286 212° Southwest 422 486 36,000  Level FlightAware ADS-B (CYKF)
Tue 04:32:00 PM 43.2293 -80.9853 212° Southwest 422 486 36,000  Level FlightAware ADS-B (CYKF)
Tue 04:32:40 PM 43.1631 -81.0420 212° Southwest 422 486 36,000  Level FlightAware ADS-B (CYKF)
Tue 04:33:20 PM 43.0976 -81.0981 212° Southwest 422 486 36,000  Level FlightAware ADS-B (CYKF)
Tue 04:33:59 PM 43.0378 -81.1474 211° Southwest 432 497 36,000  Level FlightAware ADS-B (CYKF)
Tue 04:34:40 PM 42.9599 -81.1956 204° Southwest 435 501 36,000  Level FlightAware ADS-B (CYKF)
Tue 04:35:17 PM 42.8886 -81.2410 205° Southwest 433 498 36,000  Level FlightAware ADS-B (CYKF)
Tue 04:35:58 PM 42.8138 -81.2875 205° Southwest 432 497 36,000  Level FlightAware ADS-B (CYKF)
Tue 04:36:41 PM 42.7364 -81.3350 204° Southwest 430 495 36,000  Level FlightAware ADS-B (CYKF)
Tue 04:37:20 PM 42.6655 -81.3785 204° Southwest 429 494 36,000  Level FlightAware ADS-B (CYKF)
Tue 04:37:56 PM 42.6004 -81.4183 204° Southwest 432 497 36,000  Level FlightAware ADS-B (CYKF)
Tue 04:38:40 PM 42.5215 -81.4665 204° Southwest 433 498 36,000  Level FlightAware ADS-B (CYKF)
Tue 04:39:17 PM 42.4782 -81.4928 204° Southwest 434 499 36,000  Level FlightAware ADS-B (CYKF)
Tue 04:40:04 PM 42.3669 -81.5604 204° Southwest 435 501 36,000  Level FlightAware ADS-B (CYKF)
Tue 04:42:26 PM 42.1159 -81.7120 204° Southwest 427 491 36,000  Level FlightAware ADS-B (CYKF)
Tue 04:43:16 PM 42.0233 -81.7676 204° Southwest 425 489 36,000  Level FlightAware ADS-B (CYKF)
Tue 04:43:52 PM 41.9622 -81.8047 204° Southwest 427 491 36,000  Level Cleveland Center
Tue 04:44:53 PM 41.8547 -81.8678 204° Southwest 421 484 36,000  Level Cleveland Center
Tue 04:45:55 PM 41.7475 -81.9303 204° Southwest 419 482 36,000  Level Cleveland Center
Tue 04:47:58 PM 41.5311 -82.0589 153° Southeast 423 487 36,000  Level Cleveland Center
Tue 04:48:59 PM 41.4239 -82.1228 204° Southwest 424 488 36,000  Level Cleveland Center
Tue 04:50:01 PM 41.2919 -82.1850 200° South 433 498 36,000  Level Cleveland Center
Tue 04:51:02 PM 41.1744 -82.2269 195° South 438 504 36,000  Level Cleveland Center
Tue 04:52:04 PM 41.0597 -82.2683 195° South 428 493 36,000  Level Cleveland Center
Tue 04:54:34 PM 40.7694 -82.3721 195° South 424 488 36,000  Level FlightAware ADS-B (KBKF)
Tue 04:58:49 PM 40.2908 -82.5399 195° South 419 482 36,000  Level FlightAware ADS-B (KBKF)
Tue 04:59:30 PM 40.2142 -82.5665 195° South 421 484 36,000  Level FlightAware ADS-B (KBKF)
Tue 05:00:08 PM 40.1448 -82.5855 192° South 437 503 36,000  Level FlightAware ADS-B (KBKF)
Tue 05:00:50 PM 40.0545 -82.5940 184° South 447 514 36,000  Level FlightAware ADS-B (KBKF)
Tue 05:01:50 PM 39.9322 -82.6033 183° South 446 513 36,000  Level FlightAware ADS-B (KBKF)
Tue 05:02:41 PM 39.8310 -82.6102 183° South 444 511 36,000  Level FlightAware ADS-B (KBKF)
Tue 05:04:32 PM 39.6000 -82.6258 183° South 437 503 36,000  Level FlightAware ADS-B
Tue 05:06:11 PM 39.4049 -82.6538 186° South 417 480 36,000  Level FlightAware ADS-B
Tue 05:07:52 PM 39.2168 -82.7179 195° South 417 480 36,000  Level FlightAware ADS-B
Tue 05:09:32 PM 39.0320 -82.7804 195° South 414 476 36,000  Level FlightAware ADS-B
Tue 05:10:29 PM 38.9238 -82.8172 195° South 412 474 36,000  Level FlightAware ADS-B
Tue 05:12:12 PM 38.7378 -82.8748 194° South 404 465 36,000  Level FlightAware ADS-B
Tue 05:12:48 PM 38.6789 -82.8985 197° South 408 470 36,000  Level FlightAware ADS-B
Tue 05:13:50 PM 38.5635 -82.9419 196° South 403 464 36,000  Level FlightAware ADS-B
Tue 05:14:52 PM 38.4483 -82.9849 196° South 403 464 36,000  Level FlightAware ADS-B
Tue 05:16:28 PM 38.2801 -83.0477 196° South 405 466 36,000  Level FlightAware ADS-B
Tue 05:21:28 PM 37.7998 -83.2247 196° South 409 471 36,000  Level FlightAware ADS-B
Tue 05:28:03 PM 37.0308 -83.5058 195° South 409 471 36,000  Level Atlanta Center
Tue 05:28:46 PM 36.9417 -83.5325 193° South 413 475 36,000  Level Indianapolis Center
Tue 05:29:00 PM 37.0871 -83.4809 195° South  Level FlightAware Approximate
Tue 05:29:48 PM 36.8311 -83.5719 196° South 413 475 36,000  Level Indianapolis Center
Tue 05:30:00 PM 36.9918 -83.5119 195° South  Level FlightAware Approximate
Tue 05:30:49 PM 36.7203 -83.6106 196° South 414 476 36,000  Level Indianapolis Center
Tue 05:31:00 PM 36.8966 -83.5428 195° South  Level FlightAware Approximate
Tue 05:31:51 PM 36.6106 -83.6492 196° South 412 474 36,000  Level Indianapolis Center
Tue 05:32:00 PM 36.8013 -83.5737 195° South  Level FlightAware Approximate
Tue 05:32:52 PM 36.4956 -83.6889 196° South 413 475 36,000  Level Indianapolis Center
Tue 05:33:00 PM 36.7061 -83.6045 195° South  Level FlightAware Approximate
Tue 05:33:54 PM 36.3844 -83.7283 196° South 414 476 36,000  Level Indianapolis Center
Tue 05:34:55 PM 36.2728 -83.7669 196° South 415 478 36,000  Level Indianapolis Center
Tue 05:35:57 PM 36.1614 -83.8058 196° South 414 476 36,000  Level Indianapolis Center
Tue 05:36:58 PM 36.0475 -83.8442 195° South 419 482 36,000  Level Indianapolis Center
Tue 05:38:00 PM 35.9358 -83.8833 196° South 417 480 36,000  Level Indianapolis Center
Tue 05:43:47 PM 35.2189 -84.0608 196° South 426 490 36,000  Level FlightAware ADS-B (KDZJ)
Tue 05:44:24 PM 35.1470 -84.0780 191° South 425 489 36,000  Level FlightAware ADS-B (KDZJ)
Tue 05:45:06 PM 35.0656 -84.0974 191° South 428 493 36,000  Level FlightAware ADS-B (KDZJ)
Tue 05:45:47 PM 34.9865 -84.1163 191° South 424 488 36,000  Level FlightAware ADS-B (KDZJ)
Tue 05:46:28 PM 34.9065 -84.1354 191° South 414 476 36,000  Level FlightAware ADS-B (KDZJ)
Tue 05:47:09 PM 34.8272 -84.1542 191° South 423 487 36,000  Level FlightAware ADS-B (KDZJ)
Tue 05:47:43 PM 34.7613 -84.1700 191° South 425 489 36,000  Level FlightAware ADS-B (KDZJ)
Tue 05:48:22 PM 34.6872 -84.1876 191° South 425 489 36,000  Level FlightAware ADS-B (KDZJ)
Tue 05:50:29 PM 34.4461 -84.2445 191° South 411 473 36,000  Level FlightAware ADS-B (KDZJ)
Tue 05:51:10 PM 34.3689 -84.2627 191° South 408 470 36,000  Level FlightAware ADS-B (KDZJ)
Tue 05:51:49 PM 34.2949 -84.2800 191° South 414 476 36,000  Level FlightAware ADS-B (KDZJ)
Tue 05:52:30 PM 34.2180 -84.2980 191° South 412 474 36,000  Level FlightAware ADS-B (KDZJ)
Tue 05:53:09 PM 34.1425 -84.3157 191° South 410 472 36,000  Level FlightAware ADS-B (KDZJ)
Tue 05:53:49 PM 34.0691 -84.3328 191° South 410 472 36,000  Level FlightAware ADS-B (KDZJ)
Tue 05:54:29 PM 33.9935 -84.3505 191° South 410 472 36,000  Level FlightAware ADS-B (KDZJ)
Tue 05:55:03 PM 33.9567 -84.3619 191° South 410 472 36,000 383 Level Atlanta Center
Tue 05:56:03 PM 33.8439 -84.3889 191° South 410 472 36,600 333 Climbing Atlanta Center
Tue 05:58:03 PM 33.6161 -84.4331 189° South 415 478 37,000 133 Climbing Atlanta Center
Tue 05:59:03 PM 33.5119 -84.4350 181° South 415 478 37,000  Level Atlanta Center
Tue 06:00:03 PM 33.3969 -84.4344 180° South 415 478 37,000  Level Atlanta Center
Tue 06:01:03 PM 33.2844 -84.4339 180° South 415 478 37,000  Level Atlanta Center
Tue 06:02:03 PM 33.1675 -84.4308 179° South 415 478 37,000  Level Atlanta Center
Tue 06:03:03 PM 33.0525 -84.4306 180° South 415 478 37,000  Level Atlanta Center
Tue 06:04:03 PM 32.9275 -84.4275 179° South 420 483 37,000  Level Atlanta Center
Tue 06:05:03 PM 32.8125 -84.4269 180° South 420 483 37,000  Level Atlanta Center
Tue 06:06:03 PM 32.6978 -84.4189 177° South 420 483 37,000  Level Atlanta Center
Tue 06:07:03 PM 32.5850 -84.4161 179° South 415 478 37,000  Level Atlanta Center
Tue 06:08:03 PM 32.4744 -84.4156 180° South 415 478 37,000  Level Atlanta Center
Tue 06:09:03 PM 32.3617 -84.4125 179° South 415 478 37,000  Level Atlanta Center
Tue 06:10:03 PM 32.2511 -84.4097 179° South 410 472 37,000  Level Atlanta Center
Tue 06:11:36 PM 32.0781 -84.4053 179° South 416 479 37,000  Level Jacksonville Center
Tue 06:12:36 PM 31.9675 -84.4036 179° South 416 479 37,000  Level Jacksonville Center
Tue 06:18:21 PM 31.3469 -84.3893 179° South 396 456 37,000  Level FlightAware ADS-B (KONZ)
Tue 06:18:58 PM 31.2580 -84.3877 179° South 397 457 37,000  Level FlightAware ADS-B (KONZ)
Tue 06:19:45 PM 31.1709 -84.3859 179° South 397 457 37,000  Level FlightAware ADS-B (KONZ)
Tue 06:20:25 PM 31.0988 -84.3845 179° South 396 456 37,000  Level FlightAware ADS-B (KONZ)
Tue 06:21:05 PM 31.0559 -84.3836 179° South 406 467 37,000  Level FlightAware ADS-B (KONZ)
Tue 06:21:26 PM 30.9850 -84.3677 169° South 437 503 37,000  Level FlightAware ADS-B (KONZ)
Tue 06:22:06 PM 30.9109 -84.3216 152° Southeast 451 519 37,000  Level FlightAware ADS-B (KONZ)
Tue 06:22:45 PM 30.8455 -84.2806 152° Southeast 450 518 37,000  Level FlightAware ADS-B (KONZ)
Tue 06:23:24 PM 30.7672 -84.2319 152° Southeast 451 519 37,000  Level FlightAware ADS-B (KONZ)
Tue 06:24:04 PM 30.6938 -84.1863 152° Southeast 452 520 37,000  Level FlightAware ADS-B (KONZ)
Tue 06:24:44 PM 30.6422 -84.1543 152° Southeast 451 519 37,000  Level FlightAware ADS-B (KONZ)
Tue 06:25:26 PM 30.5423 -84.0939 152° Southeast 452 520 37,000  Level FlightAware ADS-B (KONZ)
Tue 06:26:06 PM 30.4688 -84.0498 153° Southeast 454 522 37,000  Level FlightAware ADS-B (KONZ)
Tue 06:26:45 PM 30.4201 -84.0205 153° Southeast 456 525 37,000  Level FlightAware ADS-B (KONZ)
Tue 06:27:19 PM 30.3443 -83.9749 153° Southeast 450 518 37,000  Level FlightAware ADS-B (KONZ)
Tue 06:28:06 PM 30.2459 -83.9156 153° Southeast 445 512 37,000  Level FlightAware ADS-B (KONZ)
Tue 06:28:46 PM 30.2000 -83.8882 153° Southeast 444 511 37,000  Level FlightAware ADS-B (KONZ)
Tue 06:29:24 PM 30.1273 -83.8447 153° Southeast 444 511 37,000  Level FlightAware ADS-B (KONZ)
Tue 06:30:44 PM 29.9565 -83.7428 153° Southeast 448 516 37,000  Level FlightAware ADS-B (KONZ)
Tue 06:31:36 PM 29.8653 -83.6903 153° Southeast 447 514 37,000  Level Jacksonville Center
Tue 06:32:36 PM 29.7633 -83.6319 154° Southeast 447 514 37,000  Level Jacksonville Center
Tue 06:33:36 PM 29.6531 -83.5642 152° Southeast 447 514 37,000  Level Jacksonville Center
Tue 06:34:36 PM 29.5406 -83.4964 152° Southeast 447 514 37,000  Level Jacksonville Center
Tue 06:35:36 PM 29.4283 -83.4314 153° Southeast 447 514 37,000  Level Jacksonville Center
Tue 06:36:36 PM 29.3136 -83.3664 154° Southeast 447 514 37,000  Level Jacksonville Center
Tue 06:37:36 PM 29.2011 -83.2969 152° Southeast 447 514 37,000  Level Jacksonville Center
Tue 06:38:36 PM 29.0867 -83.2322 154° Southeast 447 514 37,000  Level Jacksonville Center
Tue 06:39:36 PM 28.9761 -83.1656 152° Southeast 447 514 37,000  Level Jacksonville Center
Tue 06:40:36 PM 28.8592 -83.1011 154° Southeast 452 520 37,000  Level Jacksonville Center
Tue 06:41:36 PM 28.7489 -83.0347 152° Southeast 452 520 37,000  Level Jacksonville Center
Tue 06:42:36 PM 28.6342 -82.9706 154° Southeast 447 514 37,000  Level Jacksonville Center
Tue 06:43:36 PM 28.5233 -82.9044 152° Southeast 447 514 37,000  Level Jacksonville Center
Tue 06:44:36 PM 28.4108 -82.8406 153° Southeast 447 514 37,000  Level Jacksonville Center
Tue 06:45:36 PM 28.3000 -82.7769 153° Southeast 447 514 37,000  Level Jacksonville Center
Tue 06:47:48 PM 28.0408 -82.6289 153° Southeast 453 521 37,000  Level Miami Center
Tue 06:48:48 PM 27.9347 -82.5647 152° Southeast 461 531 37,000  Level Miami Center
Tue 06:49:48 PM 27.8181 -82.5142 159° South 455 524 37,000 -59 Level Miami Center
Tue 07:05:48 PM 25.9978 -82.5236 181° South 421 484 36,000 -59 Descending Miami Center
Tue 07:06:00 PM 26.2298 -82.5414 181° South  Level FlightAware Approximate
Tue 07:06:48 PM 25.8706 -82.5200 179° South 421 484 36,000  Level Miami Center
Tue 07:07:00 PM 26.1318 -82.5430 181° South  Level FlightAware Approximate
Tue 07:07:48 PM 25.7558 -82.5192 180° South 421 484 36,000  Level Miami Center
Tue 07:08:00 PM 26.0337 -82.5447 181° South  Level FlightAware Approximate
Tue 07:08:48 PM 25.6411 -82.5183 180° South 421 484 36,000  Level Miami Center
Tue 07:09:00 PM 25.9357 -82.5463 181° South  Level FlightAware Approximate
Tue 07:09:48 PM 25.5242 -82.5175 180° South 421 484 36,000  Level Miami Center
Tue 07:10:00 PM 25.8377 -82.5480 181° South  Level FlightAware Approximate
Tue 07:10:48 PM 25.4092 -82.5214 182° South 421 484 36,000  Level Miami Center
Tue 07:11:00 PM 25.7396 -82.5496 181° South  Level FlightAware Approximate
Tue 07:11:48 PM 25.2922 -82.5206 180° South 421 484 36,000  Level Miami Center
Tue 07:12:48 PM 25.1858 -82.5200 180° South 426 490 36,000  Level Miami Center
Tue 07:13:48 PM 25.0711 -82.5217 181° South 421 484 36,000  Level Miami Center
Tue 07:14:48 PM 24.9519 -82.5208 180° South 421 484 36,000 -500 Level Miami Center
Tue 07:15:48 PM 24.8331 -82.5197 180° South 421 484 35,000 -909 Descending Miami Center
Tue 07:17:00 PM 24.7142 -82.5211 181° South 426 490 34,000 -1,409 Descending Miami Center
Tue 07:18:00 PM 24.5700 -82.5214 180° South 431 496 31,900 -2,050 Descending Miami Center
Tue 07:19:00 PM 24.4594 -82.5211 180° South 421 484 29,900 -1,950 Descending Miami Center
Tue 07:20:00 PM 24.3425 -82.5203 180° South 416 479 28,000 -1,900 Descending Miami Center
Tue 07:21:00 PM 24.2319 -82.5197 180° South 410 472 26,100 -1,900 Descending Miami Center
Tue 07:22:00 PM 24.1253 -82.5217 181° South 404 465 24,200 -1,900 Descending Miami Center
Tue 07:23:00 PM 24.0107 -82.5167 180° South  Level FlightAware Approximate
Tue 07:30:00 PM 23.2142 -82.4167 180° South  Level FlightAware Approximate
Tue 07:31:00 PM 23.1002 -82.4100 170° South  Level FlightAware Approximate
Tue 07:32:00 PM 22.9865 -82.4000 180° South  Level FlightAware Approximate
Tue 07:33:00 PM 22.9891 -82.4091 180° South  Level Estimated
Tue 07:34:00 PM 22.9891 -82.4091 180° South  Level Estimated
Tue 07:35:00 PM 22.9891 -82.4091 180° South  Level Estimated
Tue 07:36:00 PM 22.9891 -82.4091 180° South  Level Estimated
Tue 07:37:00 PM 22.9891 -82.4091 180° South  Level Estimated
Tue 07:38:00 PM 22.9891 -82.4091 180° South  Level Estimated
Tue 07:39:00 PM 22.9891 -82.4091 180° South  Level Estimated
Tue 07:40:00 PM 22.9891 -82.4091 180° South  Level Estimated
Tue 07:41:00 PM 22.9891 -82.4091 180° South  Level Estimated
Tue 07:42:00 PM 22.9891 -82.4091 180° South  Level Estimated
Tue 07:43:00 PM 22.9891 -82.4091 180° South  Level Estimated
Tue 07:44:00 PM 22.9891 -82.4091 180° South  Level Estimated
Tue 07:45:00 PM 22.9891 -82.4091 180° South  Level Estimated
Tue 07:46:00 PM 22.9891 -82.4091 180° South  Level Estimated
Tue 07:47:00 PM 22.9891 -82.4091 180° South  Level Estimated
Tue 07:48:00 PM 22.9891 -82.4091 180° South  Level Estimated
Tue 07:49:00 PM 22.9891 -82.4091 180° South  Level Estimated
Tue 07:50:00 PM 22.9891 -82.4091 180° South  Level Estimated
Tue 07:51:00 PM 22.9891 -82.4091 180° South  Level Estimated
Tue 07:52:00 PM 22.9891 -82.4091 180° South  Level Estimated
Tue 07:53:00 PM 22.9891 -82.4091 180° South  Level Estimated

Login

Don't have an account? Register now (free) for customized features, flight alerts, and more!